METAR Data
IDs: Format: Raw Decoded Include TAF

Data at: 1515 UTC 18 Aug 2019

PANW 181456Z AUTO 36010KT 10SM CLR 09/04 A3022 RMK AO2 SLP248 T00940039 58013
PANW 181356Z AUTO 35011KT 10SM CLR 11/04 A3024 RMK AO2 SLP254 T01060039
PANW 181156Z AUTO 34012KT 10SM CLR 11/06 A3026 RMK AO2 SLP261 T01110056 10161 20111 58009
PANW 181056Z AUTO 01008KT 10SM CLR 12/06 A3027 RMK AO2 SLP264 T01170061
PANW 180956Z AUTO VRB04KT 10SM CLR 12/06 A3029 RMK AO2 SLP271 T01220061
PANW 180856Z AUTO 34015KT 10SM CLR 13/06 A3029 RMK AO2 SLP271 T01280061 402000128 58005
PANW 180756Z AUTO 36012KT 10SM CLR 14/06 A3030 RMK AO2 SLP275 T01390061
PANW 180656Z AUTO 36007G15KT 10SM CLR 14/06 A3030 RMK AO2 SLP278 T01440061
PANW 180556Z AUTO 01009G17KT 10SM CLR 16/06 A3030 RMK AO2 SLP276 T01610061 10200 20161 55008
PANW 180456Z AUTO 01012G19KT 10SM CLR 18/07 A3030 RMK AO2 SLP275 T01830067
PANW 180356Z AUTO 01009G16KT 10SM CLR 19/07 A3031 RMK AO2 SLP279 T01890067
PANW 180256Z AUTO 01013G21KT 9SM CLR 19/06 A3032 RMK AO2 SLP283 T01890061 56007
PANW 180156Z AUTO 02011G16KT 10SM CLR 20/07 A3033 RMK AO2 SLP285 T02000067
PANW 180056Z AUTO 36014KT 10SM CLR 19/07 A3033 RMK AO2 SLP287 T01940067
PANW 172356Z AUTO 01011G18KT 10SM CLR 19/07 A3035 RMK AO2 SLP290 T01890067 10189 20139 58015
PANW 172256Z AUTO 01010G17KT 10SM CLR 19/06 A3036 RMK AO2 SLP296 T01890061
PANW 172156Z AUTO 02011G17KT 10SM CLR 18/06 A3038 RMK AO2 SLP301 T01780061
PANW 172056Z AUTO 02013G19KT 10SM CLR 17/06 A3039 RMK AO2 SLP306 T01670061 56008
PANW 171956Z AUTO 36015G21KT 9SM CLR 16/08 A3039 RMK AO2 SLP307 T01560078
PANW 171856Z AUTO 35010G17KT 330V030 9SM CLR 14/09 A3040 RMK AO2 SLP309 T01440089
PANW 171804Z AUTO 35013KT 10SM SCT028 14/08 A3041 RMK AO2
PANW 171756Z AUTO 36009G16KT 10SM BKN028 14/08 A3041 RMK AO2 SLP313 T01390083 10150 20128 55000
PANW 171656Z AUTO 01009KT 10SM OVC020 13/09 A3042 RMK AO2 SLP313 T01330089
PANW 171556Z AUTO 35007KT 10SM OVC020 13/12 A3041 RMK AO2 SLP312 T01330117
PANW 171456Z AUTO 02004KT 10SM OVC020 13/12 A3041 RMK AO2 SLP312 T01330117 51006
PANW 171445Z AUTO 01005KT 10SM BKN020 OVC085 13/12 A3041 RMK AO2
PANW 171356Z AUTO 01006KT 10SM OVC060 14/12 A3041 RMK AO2 SLP310 T01390117
PANW 171256Z AUTO 01008KT 10SM CLR 14/12 A3041 RMK AO2 SLP310 T01390117
PANW 171156Z AUTO 36007KT 10SM OVC037 15/12 A3040 RMK AO2 SLP307 T01500122 10206 20150 55001
PANW 171056Z AUTO 36009KT 10SM OVC045 16/12 A3040 RMK AO2 SLP306 T01560122
PANW 170956Z AUTO 02009G16KT 10SM OVC047 16/12 A3040 RMK AO2 SLP308 T01560122
PANW 170856Z AUTO 02006KT 10SM CLR 16/12 A3040 RMK AO2 SLP309 T01560122 402390067 51008
PANW 170756Z AUTO 01006KT 6SM HZ CLR 16/12 A3040 RMK AO2 SLP309 T01610117
PANW 170656Z AUTO 01007G16KT 10SM CLR 18/11 A3039 RMK AO2 SLP307 T01780106
PANW 170556Z AUTO 35005KT 9SM CLR 21/09 A3038 RMK AO2 SLP302 T02060094 10239 20206 55005
PANW 170456Z AUTO 32003KT 10SM CLR 23/09 A3037 RMK AO2 SLP300 T02280089
PANW 170356Z AUTO 30008KT 10SM CLR 24/08 A3038 RMK AO2 SLP303 T02390078